Royal Oak, MI (48067)

22:16 EST 20. Prosinec 2014 (GMT -0500)
Chili Dog | Change Station
CLOSE
Current Station
Osobní povětrnostní stanice
Location: Madison Heights, MI
Nadmořská výška: 633 ft
Poblíž povětrnostní stanice

Výška 633 ft 42.50 °N, 83.11 °W | Updated 3 seconds ago

Zataženo
Zataženo
29.8 °F
Pocit jako 30 °F
S
0.7
Vítr proměnlivý Vítr od SV
Gusts 1.6 mil/h

Dnes
Vysoké -- | Nízké -- °F
--% Možnost srážek
Včera
Vysoké -- | Nízké -- °F
Precip. -- inčů
7:58 AM 5:02 PM
Ubývající srpek, 1% visible
Tlak 30.30 inčů
Viditelnost 10.0 mílí
Zataženo Zataženo 2800 ft
Ochlazování větrem 30 °F
Rosný bod 19 °F
Vlhkost 64%
Dešťové srážky 0.00 inčů
Sněhová pokrývka Není k dispozici
UV záření 0 ze 12
Pyl .10 ze 12
Kvalita ovzduší Není k dispozici
Flu Activity Není k dispozici
METAR KVLL 210255Z AUTO 00000KT 10SM OVC028 00/M06 A3030 RMK AO2 T00001061

More Conditions Fewer Conditions

Tlak 30.30 inčů
Viditelnost 10.0 mílí
Zataženo Zataženo 2800 ft
Ochlazování větrem 30 °F
Rosný bod 19 °F
Vlhkost 64%
Dešťové srážky 0.00 inčů
Sněhová pokrývka Není k dispozici
UV záření 0 ze 12
Pyl .10 ze 12
Kvalita ovzduší Není k dispozici
Flu Activity Není k dispozici
METAR KVLL 210255Z AUTO 00000KT 10SM OVC028 00/M06 A3030 RMK AO2 T00001061

More Conditions Fewer Conditions

10-Day Weather Forecast

Almanac

Astronomie

Dec. 20, 2014 Východ Západ
Skutečný čas
Občanský soumrak
Námořní soumrak
Astronomický soumrak
Měsíc
Délka denního světla
Délka dne
Tomorrow will be .
, % of the Moon is Illuminated

Dnešní extrémy

State Highs State Lows

Community

WunderPhotos

Upload Photos

1,779,349 snímků staženo!

WunderBlogs® & News

Nearby

Kvalita ovzduší

  Kvalita ovzduší Index kvality ovzduší Polutant
Not available.

Výška sněhu

Station Hloubka Nadmořská výška

Seizmická činnost

Město Distance Mag. Čas & datum
Minimální zobrazený rozsah je 2.5.

Pobřežní teplota vody

Lokalita Teplota

Poblíž povětrnostní stanice